sensor_id;sensor_type;location;lat;lon;timestamp;P1;P2;P0
62981;PMS5003;49075;53.988;27.678;2023-03-23T00:03:41;49.2;42.8;31
62981;PMS5003;49075;53.988;27.678;2023-03-23T00:08:40;50.6;44.2;31.6
62981;PMS5003;49075;53.988;27.678;2023-03-23T00:13:41;52.8;44.4;31.4
62981;PMS5003;49075;53.988;27.678;2023-03-23T00:18:40;46.6;40.8;30
62981;PMS5003;49075;53.988;27.678;2023-03-23T00:23:48;50.6;44;31.2
62981;PMS5003;49075;53.988;27.678;2023-03-23T00:28:40;47.6;41.6;30.6
62981;PMS5003;49075;53.988;27.678;2023-03-23T00:33:54;47;41;29.4
62981;PMS5003;49075;53.988;27.678;2023-03-23T00:38:40;48.8;42.8;29.6
62981;PMS5003;49075;53.988;27.678;2023-03-23T00:43:40;51;43.8;31.2
62981;PMS5003;49075;53.988;27.678;2023-03-23T00:48:48;50;42.2;30.4
62981;PMS5003;49075;53.988;27.678;2023-03-23T00:53:40;45.8;39.8;26.8
62981;PMS5003;49075;53.988;27.678;2023-03-23T00:58:54;49.4;42.2;30
62981;PMS5003;49075;53.988;27.678;2023-03-23T01:04:06;53.8;45.6;32.4
62981;PMS5003;49075;53.988;27.678;2023-03-23T01:08:41;44;39;27.8
62981;PMS5003;49075;53.988;27.678;2023-03-23T01:13:48;45;40.2;28.6
62981;PMS5003;49075;53.988;27.678;2023-03-23T01:18:40;52.6;45.4;31.2
62981;PMS5003;49075;53.988;27.678;2023-03-23T01:24:00;51.2;43.4;30.4
62981;PMS5003;49075;53.988;27.678;2023-03-23T01:28:51;53.2;45.2;31.8
62981;PMS5003;49075;53.988;27.678;2023-03-23T01:33:56;53;45.2;32.4
62981;PMS5003;49075;53.988;27.678;2023-03-23T01:38:59;53.6;45.8;32
62981;PMS5003;49075;53.988;27.678;2023-03-23T01:43:57;52.8;44.6;31.4
62981;PMS5003;49075;53.988;27.678;2023-03-23T01:48:54;52;43.8;31
62981;PMS5003;49075;53.988;27.678;2023-03-23T01:54:05;55.8;47.4;33.4
62981;PMS5003;49075;53.988;27.678;2023-03-23T01:58:40;54.8;46.8;33
62981;PMS5003;49075;53.988;27.678;2023-03-23T02:03:48;49.4;43.2;30.2
62981;PMS5003;49075;53.988;27.678;2023-03-23T02:08:41;54.6;46.2;32.6
62981;PMS5003;49075;53.988;27.678;2023-03-23T02:13:54;58;48.6;33.4
62981;PMS5003;49075;53.988;27.678;2023-03-23T02:19:29;57.6;47.6;32.6
62981;PMS5003;49075;53.988;27.678;2023-03-23T02:23:45;50.2;43;30
62981;PMS5003;49075;53.988;27.678;2023-03-23T02:29:03;53.8;45.8;32.2
62981;PMS5003;49075;53.988;27.678;2023-03-23T02:33:57;59;49;33.4
62981;PMS5003;49075;53.988;27.678;2023-03-23T02:38:42;63.8;52;35
62981;PMS5003;49075;53.988;27.678;2023-03-23T02:44:12;63.8;52.6;36.6
62981;PMS5003;49075;53.988;27.678;2023-03-23T02:48:56;65;53.6;36.4
62981;PMS5003;49075;53.988;27.678;2023-03-23T02:53:41;64.4;53.4;36.6
62981;PMS5003;49075;53.988;27.678;2023-03-23T02:59:10;60;50.5;34.5
62981;PMS5003;49075;53.988;27.678;2023-03-23T03:03:40;64.2;53.2;36.8
62981;PMS5003;49075;53.988;27.678;2023-03-23T03:08:41;64.4;52.8;34.6
62981;PMS5003;49075;53.988;27.678;2023-03-23T03:14:02;64.6;53.6;35.6
62981;PMS5003;49075;53.988;27.678;2023-03-23T03:18:47;65.2;53.2;36.6
62981;PMS5003;49075;53.988;27.678;2023-03-23T03:23:57;65.6;53;35
62981;PMS5003;49075;53.988;27.678;2023-03-23T03:28:55;67.2;55.2;37.6
62981;PMS5003;49075;53.988;27.678;2023-03-23T03:33:40;71;56.8;37.8
62981;PMS5003;49075;53.988;27.678;2023-03-23T03:38:41;70;56.6;38.4
62981;PMS5003;49075;53.988;27.678;2023-03-23T03:43:40;63.4;52.2;35.2
62981;PMS5003;49075;53.988;27.678;2023-03-23T03:48:40;61.2;51;33.8
62981;PMS5003;49075;53.988;27.678;2023-03-23T03:54:02;62.4;51.2;35.2
62981;PMS5003;49075;53.988;27.678;2023-03-23T03:59:07;63.3;52;35
62981;PMS5003;49075;53.988;27.678;2023-03-23T04:03:55;64.8;53.2;36.6
62981;PMS5003;49075;53.988;27.678;2023-03-23T04:08:57;67.4;54.2;36.6
62981;PMS5003;49075;53.988;27.678;2023-03-23T04:13:54;67;55.6;38.2
62981;PMS5003;49075;53.988;27.678;2023-03-23T04:18:40;72.6;59.6;39.2
62981;PMS5003;49075;53.988;27.678;2023-03-23T04:23:48;68.8;56.6;38
62981;PMS5003;49075;53.988;27.678;2023-03-23T04:28:40;72.8;59;40.2
62981;PMS5003;49075;53.988;27.678;2023-03-23T04:33:40;68.8;56;38
62981;PMS5003;49075;53.988;27.678;2023-03-23T04:38:40;67.4;55;37.2
62981;PMS5003;49075;53.988;27.678;2023-03-23T04:43:54;66;54;37.4
62981;PMS5003;49075;53.988;27.678;2023-03-23T04:48:38;66.6;54.6;37
62981;PMS5003;49075;53.988;27.678;2023-03-23T04:53:40;66.2;54.4;37.2
62981;PMS5003;49075;53.988;27.678;2023-03-23T04:58:40;64.3;53.8;36.8
62981;PMS5003;49075;53.988;27.678;2023-03-23T05:03:57;66.4;54.6;36.6
62981;PMS5003;49075;53.988;27.678;2023-03-23T05:08:54;62;52;34.6
62981;PMS5003;49075;53.988;27.678;2023-03-23T05:13:49;65;53.4;36
62981;PMS5003;49075;53.988;27.678;2023-03-23T05:18:50;66.2;53.8;36.8
62981;PMS5003;49075;53.988;27.678;2023-03-23T05:23:46;66;54.4;37.6
62981;PMS5003;49075;53.988;27.678;2023-03-23T05:28:41;70;56.8;38.4
62981;PMS5003;49075;53.988;27.678;2023-03-23T05:33:41;69;56.2;37.8
62981;PMS5003;49075;53.988;27.678;2023-03-23T05:39:29;65.6;53.8;37.8
62981;PMS5003;49075;53.988;27.678;2023-03-23T05:43:41;69.2;56.4;37.8
62981;PMS5003;49075;53.988;27.678;2023-03-23T05:48:49;68.2;55.8;38
62981;PMS5003;49075;53.988;27.678;2023-03-23T05:53:57;70.8;57.2;39.6
62981;PMS5003;49075;53.988;27.678;2023-03-23T05:59:01;67.8;55.8;38.3
62981;PMS5003;49075;53.988;27.678;2023-03-23T06:04:05;67.6;55.8;38.2
62981;PMS5003;49075;53.988;27.678;2023-03-23T06:08:55;68;55.6;37.4
62981;PMS5003;49075;53.988;27.678;2023-03-23T06:13:41;66.8;54.6;36.8
62981;PMS5003;49075;53.988;27.678;2023-03-23T06:19:01;67.4;54.8;37.6
62981;PMS5003;49075;53.988;27.678;2023-03-23T06:23:55;65.8;54.6;37
62981;PMS5003;49075;53.988;27.678;2023-03-23T06:28:51;64;52.8;36.4
62981;PMS5003;49075;53.988;27.678;2023-03-23T06:33:41;63.8;52.8;35.6
62981;PMS5003;49075;53.988;27.678;2023-03-23T06:38:47;68;56;37.8
62981;PMS5003;49075;53.988;27.678;2023-03-23T06:44:11;64.8;53.2;36.2
62981;PMS5003;49075;53.988;27.678;2023-03-23T06:48:41;67.4;55;36.8
62981;PMS5003;49075;53.988;27.678;2023-03-23T06:54:29;65.2;53.4;36.8
62981;PMS5003;49075;53.988;27.678;2023-03-23T06:59:03;68.6;56;38.2
62981;PMS5003;49075;53.988;27.678;2023-03-23T07:03:49;67;54.5;37.3
62981;PMS5003;49075;53.988;27.678;2023-03-23T07:08:57;66.8;54.6;36.6
62981;PMS5003;49075;53.988;27.678;2023-03-23T07:14:05;69.6;56.6;38
62981;PMS5003;49075;53.988;27.678;2023-03-23T07:18:41;67;55;37.4
62981;PMS5003;49075;53.988;27.678;2023-03-23T07:23:41;69.4;56.6;38.2
62981;PMS5003;49075;53.988;27.678;2023-03-23T07:28:51;66;54;36.4
62981;PMS5003;49075;53.988;27.678;2023-03-23T07:34:11;64.4;52.8;36.2
62981;PMS5003;49075;53.988;27.678;2023-03-23T07:38:49;61.4;50.4;34.2
62981;PMS5003;49075;53.988;27.678;2023-03-23T07:43:41;62.8;51.4;34.8
62981;PMS5003;49075;53.988;27.678;2023-03-23T07:48:41;62.4;51.4;34.8
62981;PMS5003;49075;53.988;27.678;2023-03-23T07:53:49;60.8;50;34
62981;PMS5003;49075;53.988;27.678;2023-03-23T07:58:57;57;47.6;32.4
62981;PMS5003;49075;53.988;27.678;2023-03-23T08:03:55;63;52;35
62981;PMS5003;49075;53.988;27.678;2023-03-23T08:08:57;65;53.2;35.8
62981;PMS5003;49075;53.988;27.678;2023-03-23T08:13:55;62.2;51;34.2
62981;PMS5003;49075;53.988;27.678;2023-03-23T08:18:49;60.8;50.2;34
62981;PMS5003;49075;53.988;27.678;2023-03-23T08:23:57;59.4;48.4;32.2
62981;PMS5003;49075;53.988;27.678;2023-03-23T08:28:51;61.4;49.8;34.4
62981;PMS5003;49075;53.988;27.678;2023-03-23T08:33:49;63;52;35.2
62981;PMS5003;49075;53.988;27.678;2023-03-23T08:38:55;61.2;50.4;34.4
62981;PMS5003;49075;53.988;27.678;2023-03-23T08:43:41;64.3;52.3;35.3
62981;PMS5003;49075;53.988;27.678;2023-03-23T08:48:41;58.4;48.4;32.2
62981;PMS5003;49075;53.988;27.678;2023-03-23T08:53:41;62.6;51;35.6
62981;PMS5003;49075;53.988;27.678;2023-03-23T08:58:41;65;53.2;36.2
62981;PMS5003;49075;53.988;27.678;2023-03-23T09:04:31;61.8;50.6;34.4
62981;PMS5003;49075;53.988;27.678;2023-03-23T09:08:41;61.4;50.2;33.2
62981;PMS5003;49075;53.988;27.678;2023-03-23T09:13:41;65.4;54;37.4
62981;PMS5003;49075;53.988;27.678;2023-03-23T09:18:41;62.2;50.6;35
62981;PMS5003;49075;53.988;27.678;2023-03-23T09:24:05;61.4;50.8;34.4
62981;PMS5003;49075;53.988;27.678;2023-03-23T09:28:55;64.6;52.6;36
62981;PMS5003;49075;53.988;27.678;2023-03-23T09:33:41;63.2;51.4;34.8
62981;PMS5003;49075;53.988;27.678;2023-03-23T09:38:41;59.8;49;33.4
62981;PMS5003;49075;53.988;27.678;2023-03-23T09:43:50;61.6;50;34.6
62981;PMS5003;49075;53.988;27.678;2023-03-23T09:48:50;63.5;51.5;34.5
62981;PMS5003;49075;53.988;27.678;2023-03-23T09:53:55;66.6;54;36
62981;PMS5003;49075;53.988;27.678;2023-03-23T09:58:48;69.8;58.2;38.8
62981;PMS5003;49075;53.988;27.678;2023-03-23T10:04:10;67.6;55;37.8
62981;PMS5003;49075;53.988;27.678;2023-03-23T10:08:59;68.4;55.8;37.4
62981;PMS5003;49075;53.988;27.678;2023-03-23T10:13:47;62.6;51.4;34.4
62981;PMS5003;49075;53.988;27.678;2023-03-23T10:18:41;64;52.6;35.4
62981;PMS5003;49075;53.988;27.678;2023-03-23T10:23:52;64.8;52.8;35.4
62981;PMS5003;49075;53.988;27.678;2023-03-23T10:29:13;64;52.4;34.8
62981;PMS5003;49075;53.988;27.678;2023-03-23T10:33:41;64.2;52.8;35.4
62981;PMS5003;49075;53.988;27.678;2023-03-23T10:39:29;63;51.6;33.8
62981;PMS5003;49075;53.988;27.678;2023-03-23T10:43:53;63.4;52;35.8
62981;PMS5003;49075;53.988;27.678;2023-03-23T10:48:41;67.8;56.5;37.3
62981;PMS5003;49075;53.988;27.678;2023-03-23T10:53:58;65.6;52.6;36
62981;PMS5003;49075;53.988;27.678;2023-03-23T10:58:41;66.6;54.4;38
62981;PMS5003;49075;53.988;27.678;2023-03-23T11:03:42;65.2;53;37
62981;PMS5003;49075;53.988;27.678;2023-03-23T11:08:55;62.6;51.6;35
62981;PMS5003;49075;53.988;27.678;2023-03-23T11:13:59;61.8;50.2;34
62981;PMS5003;49075;53.988;27.678;2023-03-23T11:18:57;64.8;52;34.8
62981;PMS5003;49075;53.988;27.678;2023-03-23T11:23:59;62;50.4;34.8
62981;PMS5003;49075;53.988;27.678;2023-03-23T11:28:43;60.6;48.8;33.8
62981;PMS5003;49075;53.988;27.678;2023-03-23T11:33:46;58.4;48;32
62981;PMS5003;49075;53.988;27.678;2023-03-23T11:38:42;59;47.8;32.6
62981;PMS5003;49075;53.988;27.678;2023-03-23T11:43:57;60.6;49.2;33.8
62981;PMS5003;49075;53.988;27.678;2023-03-23T11:48:43;59;48.3;33
62981;PMS5003;49075;53.988;27.678;2023-03-23T11:54:33;63.8;52.2;37
62981;PMS5003;49075;53.988;27.678;2023-03-23T11:58:56;61;50.6;34.4
62981;PMS5003;49075;53.988;27.678;2023-03-23T12:03:47;62.8;51.2;34.6
62981;PMS5003;49075;53.988;27.678;2023-03-23T12:08:45;61;49.6;33.6
62981;PMS5003;49075;53.988;27.678;2023-03-23T12:13:45;55;45.6;31.8
62981;PMS5003;49075;53.988;27.678;2023-03-23T12:18:52;61.2;49.8;34
62981;PMS5003;49075;53.988;27.678;2023-03-23T12:23:42;59.8;48.8;33.2
62981;PMS5003;49075;53.988;27.678;2023-03-23T12:28:53;60;48.2;32.6
62981;PMS5003;49075;53.988;27.678;2023-03-23T12:33:44;59.2;48.6;32.6
62981;PMS5003;49075;53.988;27.678;2023-03-23T12:38:51;55.8;46.2;31.8
62981;PMS5003;49075;53.988;27.678;2023-03-23T12:44:10;59.6;48;33.2
62981;PMS5003;49075;53.988;27.678;2023-03-23T12:49:05;61;50.3;34.5
62981;PMS5003;49075;53.988;27.678;2023-03-23T12:53:43;58.8;48.8;33.4
62981;PMS5003;49075;53.988;27.678;2023-03-23T12:58:42;62;50;34.4
62981;PMS5003;49075;53.988;27.678;2023-03-23T13:03:54;61.8;50.6;34.8
62981;PMS5003;49075;53.988;27.678;2023-03-23T13:09:01;64;52.4;36
62981;PMS5003;49075;53.988;27.678;2023-03-23T13:13:43;59;48.2;33
62981;PMS5003;49075;53.988;27.678;2023-03-23T13:18:44;62.6;51.2;34.8
62981;PMS5003;49075;53.988;27.678;2023-03-23T13:23:41;60.2;48.8;33.6
62981;PMS5003;49075;53.988;27.678;2023-03-23T13:28:48;59.4;48.6;33.2
62981;PMS5003;49075;53.988;27.678;2023-03-23T13:33:45;57.4;47;32
62981;PMS5003;49075;53.988;27.678;2023-03-23T13:39:02;56.6;46.4;33
62981;PMS5003;49075;53.988;27.678;2023-03-23T13:44:16;59.8;48.6;33.2
62981;PMS5003;49075;53.988;27.678;2023-03-23T13:49:03;64.5;50.5;34.5
62981;PMS5003;49075;53.988;27.678;2023-03-23T13:53:47;60;49.2;33.4
62981;PMS5003;49075;53.988;27.678;2023-03-23T13:58:45;62;50.6;34.4
62981;PMS5003;49075;53.988;27.678;2023-03-23T14:03:41;63.2;51.6;34.6
62981;PMS5003;49075;53.988;27.678;2023-03-23T14:08:42;63;51.6;34.8
62981;PMS5003;49075;53.988;27.678;2023-03-23T14:14:14;59.6;48.2;33.4
62981;PMS5003;49075;53.988;27.678;2023-03-23T14:18:51;59.8;48.6;34
62981;PMS5003;49075;53.988;27.678;2023-03-23T14:24:08;61;50.4;34.8
62981;PMS5003;49075;53.988;27.678;2023-03-23T14:28:55;56.6;46.6;31.8
62981;PMS5003;49075;53.988;27.678;2023-03-23T14:33:41;58.2;48;33
62981;PMS5003;49075;53.988;27.678;2023-03-23T14:39:15;57.2;46.6;32.6
62981;PMS5003;49075;53.988;27.678;2023-03-23T14:43:41;57.6;48.2;32.6
62981;PMS5003;49075;53.988;27.678;2023-03-23T14:48:51;56;46.6;31.6
62981;PMS5003;49075;53.988;27.678;2023-03-23T14:54:07;57;47.3;32.5
62981;PMS5003;49075;53.988;27.678;2023-03-23T14:58:47;55;45;31
62981;PMS5003;49075;53.988;27.678;2023-03-23T15:04:12;60.8;50.2;34.6
62981;PMS5003;49075;53.988;27.678;2023-03-23T15:08:49;58.8;48;32.6
62981;PMS5003;49075;53.988;27.678;2023-03-23T15:14:10;57.6;47.2;32.6
62981;PMS5003;49075;53.988;27.678;2023-03-23T15:19:03;55.6;45.8;31.8
62981;PMS5003;49075;53.988;27.678;2023-03-23T15:23:49;55.2;46.2;32.4
62981;PMS5003;49075;53.988;27.678;2023-03-23T15:28:41;57.2;47.4;32.8
62981;PMS5003;49075;53.988;27.678;2023-03-23T15:33:58;57;46.6;32.2
62981;PMS5003;49075;53.988;27.678;2023-03-23T15:38:53;56.4;46.4;32.4
62981;PMS5003;49075;53.988;27.678;2023-03-23T15:43:55;55.6;46.4;32.2
62981;PMS5003;49075;53.988;27.678;2023-03-23T15:48:45;55.2;45.8;32
62981;PMS5003;49075;53.988;27.678;2023-03-23T15:53:41;54.8;46.3;32
62981;PMS5003;49075;53.988;27.678;2023-03-23T15:59:15;55.8;47;32.4
62981;PMS5003;49075;53.988;27.678;2023-03-23T16:04:10;52;43.8;31
62981;PMS5003;49075;53.988;27.678;2023-03-23T16:08:53;60.2;49.2;33.8
62981;PMS5003;49075;53.988;27.678;2023-03-23T16:13:41;58.2;47.8;33.4
62981;PMS5003;49075;53.988;27.678;2023-03-23T16:19:27;60;49.6;33.6
62981;PMS5003;49075;53.988;27.678;2023-03-23T16:23:41;58;47.8;33.2
62981;PMS5003;49075;53.988;27.678;2023-03-23T16:28:55;57.6;47.4;32.6
62981;PMS5003;49075;53.988;27.678;2023-03-23T16:34:05;56.8;46.8;32.8
62981;PMS5003;49075;53.988;27.678;2023-03-23T16:38:41;56.4;46.4;32.2
62981;PMS5003;49075;53.988;27.678;2023-03-23T16:43:59;57.2;47;32.6
62981;PMS5003;49075;53.988;27.678;2023-03-23T16:49:21;56.8;46.4;31.8
62981;PMS5003;49075;53.988;27.678;2023-03-23T16:53:41;59;48.8;33.8
62981;PMS5003;49075;53.988;27.678;2023-03-23T16:58:53;58.5;48.3;33
62981;PMS5003;49075;53.988;27.678;2023-03-23T17:03:41;59;48.8;33.8
62981;PMS5003;49075;53.988;27.678;2023-03-23T17:08:59;56.8;46.8;32.2
62981;PMS5003;49075;53.988;27.678;2023-03-23T17:14:33;56;46.6;32.6
62981;PMS5003;49075;53.988;27.678;2023-03-23T17:18:41;57.6;47.2;33
62981;PMS5003;49075;53.988;27.678;2023-03-23T17:24:07;59;48;33
62981;PMS5003;49075;53.988;27.678;2023-03-23T17:28:41;57.4;47.2;32.6
62981;PMS5003;49075;53.988;27.678;2023-03-23T17:33:41;52.6;43.8;29.8
62981;PMS5003;49075;53.988;27.678;2023-03-23T17:38:47;52.8;44.4;30.2
62981;PMS5003;49075;53.988;27.678;2023-03-23T17:43:41;53.8;45.2;31.4
62981;PMS5003;49075;53.988;27.678;2023-03-23T17:48:53;52.4;44;30.6
62981;PMS5003;49075;53.988;27.678;2023-03-23T17:53:41;52.4;44;31.2
62981;PMS5003;49075;53.988;27.678;2023-03-23T17:58:41;55;45.5;31
62981;PMS5003;49075;53.988;27.678;2023-03-23T18:04:17;53.8;45.2;31.4
62981;PMS5003;49075;53.988;27.678;2023-03-23T18:08:41;54;44.6;30.8
62981;PMS5003;49075;53.988;27.678;2023-03-23T18:13:55;48.6;41;28.8
62981;PMS5003;49075;53.988;27.678;2023-03-23T18:18:53;48;41.2;27.8
62981;PMS5003;49075;53.988;27.678;2023-03-23T18:24:09;50.8;42.2;29.2
62981;PMS5003;49075;53.988;27.678;2023-03-23T18:28:41;52.4;44.2;31.4
62981;PMS5003;49075;53.988;27.678;2023-03-23T18:33:41;49.8;41.6;29.6
62981;PMS5003;49075;53.988;27.678;2023-03-23T18:39:13;51.4;43;29.4
62981;PMS5003;49075;53.988;27.678;2023-03-23T18:43:55;48;41;29
62981;PMS5003;49075;53.988;27.678;2023-03-23T18:48:59;52;43.4;30
62981;PMS5003;49075;53.988;27.678;2023-03-23T18:53:47;49.8;41.6;28.6
62981;PMS5003;49075;53.988;27.678;2023-03-23T18:58:57;50.3;42.3;29
62981;PMS5003;49075;53.988;27.678;2023-03-23T19:03:55;48.2;41;29.2
62981;PMS5003;49075;53.988;27.678;2023-03-23T19:08:41;44;37.8;27.2
62981;PMS5003;49075;53.988;27.678;2023-03-23T19:13:41;44.6;38.2;26.8
62981;PMS5003;49075;53.988;27.678;2023-03-23T19:19:16;42;36.2;26
62981;PMS5003;49075;53.988;27.678;2023-03-23T19:23:53;43.6;37.4;27.6
62981;PMS5003;49075;53.988;27.678;2023-03-23T19:28:41;46.6;39.4;28.2
62981;PMS5003;49075;53.988;27.678;2023-03-23T19:33:41;43.6;37.6;27.4
62981;PMS5003;49075;53.988;27.678;2023-03-23T19:39:05;44.4;37.8;26.2
62981;PMS5003;49075;53.988;27.678;2023-03-23T19:43:49;43.4;37;26.8
62981;PMS5003;49075;53.988;27.678;2023-03-23T19:48:41;39;35;25.2
62981;PMS5003;49075;53.988;27.678;2023-03-23T19:54:07;43.2;36.8;26.6
62981;PMS5003;49075;53.988;27.678;2023-03-23T19:58:41;36.4;33.2;24.6
62981;PMS5003;49075;53.988;27.678;2023-03-23T20:03:41;37.5;34.8;25
62981;PMS5003;49075;53.988;27.678;2023-03-23T20:08:42;38.4;34.2;24
62981;PMS5003;49075;53.988;27.678;2023-03-23T20:13:41;40.4;36.4;26.6
62981;PMS5003;49075;53.988;27.678;2023-03-23T20:18:55;32.8;31.2;23.8
62981;PMS5003;49075;53.988;27.678;2023-03-23T20:23:41;37.2;34.2;25.4
62981;PMS5003;49075;53.988;27.678;2023-03-23T20:28:57;33.5;32;24
62981;PMS5003;49075;53.988;27.678;2023-03-23T20:33:50;34.6;32.2;24.4
62981;PMS5003;49075;53.988;27.678;2023-03-23T20:43:55;29;28;22
62981;PMS5003;49075;53.988;27.678;2023-03-23T20:49:21;36;33.2;24.6
62981;PMS5003;49075;53.988;27.678;2023-03-23T20:53:41;32.6;30.8;22.6
62981;PMS5003;49075;53.988;27.678;2023-03-23T20:59:03;33.4;31.4;23
62981;PMS5003;49075;53.988;27.678;2023-03-23T21:03:41;36;33;22.8
62981;PMS5003;49075;53.988;27.678;2023-03-23T21:08:41;38.2;34.2;24
62981;PMS5003;49075;53.988;27.678;2023-03-23T21:14:07;31.8;30.2;22.4
62981;PMS5003;49075;53.988;27.678;2023-03-23T21:18:41;36.4;33.2;24.6
62981;PMS5003;49075;53.988;27.678;2023-03-23T21:23:41;36.6;33.6;24.8
62981;PMS5003;49075;53.988;27.678;2023-03-23T21:28:41;38;35.2;25.2
62981;PMS5003;49075;53.988;27.678;2023-03-23T21:34:15;38.4;35.2;26.4
62981;PMS5003;49075;53.988;27.678;2023-03-23T21:38:53;39.8;36;26.4
62981;PMS5003;49075;53.988;27.678;2023-03-23T21:44:19;38.2;34.8;24.6
62981;PMS5003;49075;53.988;27.678;2023-03-23T21:48:49;43.2;37.8;27
62981;PMS5003;49075;53.988;27.678;2023-03-23T21:53:57;38.4;35.2;25.4
62981;PMS5003;49075;53.988;27.678;2023-03-23T21:58:49;31;30;22.5
62981;PMS5003;49075;53.988;27.678;2023-03-23T22:03:41;36.3;33.8;24.3
62981;PMS5003;49075;53.988;27.678;2023-03-23T22:08:42;38.2;34.8;24.6
62981;PMS5003;49075;53.988;27.678;2023-03-23T22:13:41;35.4;33;23.4
62981;PMS5003;49075;53.988;27.678;2023-03-23T22:19:05;33.4;31.8;23.4
62981;PMS5003;49075;53.988;27.678;2023-03-23T22:23:56;33.6;31.8;23.8
62981;PMS5003;49075;53.988;27.678;2023-03-23T22:29:07;37;34.2;24.6
62981;PMS5003;49075;53.988;27.678;2023-03-23T22:33:41;30.8;29;22.2
62981;PMS5003;49075;53.988;27.678;2023-03-23T22:39:02;28.6;28.2;22
62981;PMS5003;49075;53.988;27.678;2023-03-23T22:43:41;26.6;25.4;20.8
62981;PMS5003;49075;53.988;27.678;2023-03-23T22:48:41;30;29.2;22.6
62981;PMS5003;49075;53.988;27.678;2023-03-23T22:53:55;28.8;27.4;20.6
62981;PMS5003;49075;53.988;27.678;2023-03-23T22:58:41;26.6;26;20.2
62981;PMS5003;49075;53.988;27.678;2023-03-23T23:03:41;26.8;26.8;21
62981;PMS5003;49075;53.988;27.678;2023-03-23T23:09:19;23;22.8;19.2
62981;PMS5003;49075;53.988;27.678;2023-03-23T23:14:07;27.4;27.2;22
62981;PMS5003;49075;53.988;27.678;2023-03-23T23:18:41;29.2;28.6;22.6
62981;PMS5003;49075;53.988;27.678;2023-03-23T23:23:57;30.6;30;23.2
62981;PMS5003;49075;53.988;27.678;2023-03-23T23:28:41;32.2;30.6;24
62981;PMS5003;49075;53.988;27.678;2023-03-23T23:33:41;30.4;29;22.4
62981;PMS5003;49075;53.988;27.678;2023-03-23T23:38:41;28.4;28.2;22.6
62981;PMS5003;49075;53.988;27.678;2023-03-23T23:44:05;28.4;28;23
62981;PMS5003;49075;53.988;27.678;2023-03-23T23:48:41;30;29.6;23.8
62981;PMS5003;49075;53.988;27.678;2023-03-23T23:54:05;28.4;28.2;22.8
62981;PMS5003;49075;53.988;27.678;2023-03-23T23:58:57;29.2;28;22
